Time;durP1;ratioP1;P1;durP2;ratioP2;P2;SDS_P1;SDS_P2;PMS_P1;PMS_P2;Temp;Humidity;BMP_temperature;BMP_pressure;BME280_temperature;BME280_humidity;BME280_pressure;Samples;Min_cycle;Max_cycle;Signal;HPM_P1;HPM_P2
2022/02/07 00:01:11;;;;;;;9.52;1.80;;;6.50;69.50;;;;;;5098705;28;20320;-90
2022/02/07 00:06:04;;;;;;;8.32;2.10;;;6.50;70.10;;;;;;5118088;28;20293;-88
2022/02/07 00:08:31;;;;;;;8.15;1.80;;;6.50;70.30;;;;;;5119905;28;20163;-89
2022/02/07 00:10:57;;;;;;;8.30;1.70;;;6.50;70.80;;;;;;5107454;28;20179;-89
2022/02/07 00:13:22;;;;;;;5.03;1.67;;;6.50;70.90;;;;;;5109616;28;20268;-89
2022/02/07 00:15:48;;;;;;;8.13;1.70;;;6.40;70.90;;;;;;5102137;28;20176;-89
2022/02/07 00:18:14;;;;;;;10.50;2.60;;;6.50;71.20;;;;;;5097534;28;20175;-88
2022/02/07 00:20:40;;;;;;;7.70;1.90;;;6.50;71.30;;;;;;5101521;27;20170;-88
2022/02/07 00:23:08;;;;;;;9.00;1.83;;;6.40;71.20;;;;;;5118371;27;20195;-89
2022/02/07 00:25:34;;;;;;;4.43;1.92;;;6.50;71.50;;;;;;5089228;28;20436;-88
2022/02/07 00:27:59;;;;;;;9.63;1.80;;;6.50;71.80;;;;;;5098140;28;20205;-88
2022/02/07 00:30:25;;;;;;;11.50;2.37;;;6.40;71.50;;;;;;5097700;28;20452;-89
2022/02/07 00:32:51;;;;;;;12.43;2.77;;;6.50;71.90;;;;;;5098085;28;20203;-88
2022/02/07 00:35:20;;;;;;;6.87;2.70;;;6.40;72.10;;;;;;5098129;28;20248;-88
2022/02/07 00:37:48;;;;;;;18.60;2.78;;;6.40;72.30;;;;;;5097990;28;20413;-88
2022/02/07 00:42:53;;;;;;;7.15;2.22;;;6.50;72.40;;;;;;5116274;28;20575;-88
2022/02/07 00:45:38;;;;;;;6.03;2.03;;;6.40;72.00;;;;;;5098364;28;20527;-89
2022/02/07 00:48:05;;;;;;;10.38;2.33;;;6.50;72.30;;;;;;5098666;28;20230;-88
2022/02/07 00:50:33;;;;;;;11.55;1.90;;;6.50;72.00;;;;;;5116763;28;20240;-88
2022/02/07 00:52:59;;;;;;;13.10;2.10;;;6.40;71.90;;;;;;5110810;28;20226;-89
2022/02/07 00:55:26;;;;;;;4.38;1.40;;;6.50;72.20;;;;;;5105716;28;20190;-89
2022/02/07 00:57:52;;;;;;;17.23;4.25;;;6.40;72.20;;;;;;5098635;28;20179;-89
2022/02/07 01:00:18;;;;;;;13.40;2.87;;;6.40;72.40;;;;;;5099255;28;20250;-88
2022/02/07 01:02:44;;;;;;;11.33;1.97;;;6.30;72.60;;;;;;5098403;28;20469;-88
2022/02/07 01:05:10;;;;;;;11.90;2.47;;;6.40;72.80;;;;;;5098049;28;20175;-88
2022/02/07 01:07:37;;;;;;;15.77;2.35;;;6.40;72.80;;;;;;5097800;28;20424;-88
2022/02/07 01:10:04;;;;;;;13.32;2.22;;;6.40;72.70;;;;;;5100496;28;20183;-89
2022/02/07 01:18:35;;;;;;;7.75;2.85;;;6.50;72.70;;;;;;5115825;28;20170;-88
2022/02/07 01:47:46;;;;;;;10.85;2.38;;;6.50;72.60;;;;;;5117197;28;20243;-88
2022/02/07 01:55:44;;;;;;;13.35;2.60;;;6.40;72.60;;;;;;5118629;28;20227;-90
2022/02/07 01:58:12;;;;;;;6.30;1.90;;;6.40;72.90;;;;;;5102763;28;20179;-89
2022/02/07 02:00:41;;;;;;;8.63;1.95;;;6.30;72.90;;;;;;5114909;28;20159;-88
2022/02/07 02:03:08;;;;;;;11.45;2.67;;;6.30;73.10;;;;;;5117894;28;20211;-88
2022/02/07 02:05:37;;;;;;;11.68;2.40;;;6.30;73.20;;;;;;5108456;28;20654;-88
2022/02/07 02:08:07;;;;;;;10.30;2.05;;;6.30;73.30;;;;;;5115390;28;20186;-88
2022/02/07 02:10:35;;;;;;;16.60;2.65;;;6.20;73.20;;;;;;5097204;28;20179;-88
2022/02/07 02:47:32;;;;;;;5.65;2.15;;;6.40;73.90;;;;;;5115423;28;20179;-89
2022/02/07 02:50:16;;;;;;;4.88;1.70;;;6.40;73.90;;;;;;5101565;28;20175;-89
2022/02/07 02:52:42;;;;;;;13.52;2.28;;;6.30;73.90;;;;;;5102342;28;20726;-89
2022/02/07 02:55:08;;;;;;;9.53;2.50;;;6.20;73.90;;;;;;5101959;28;20240;-89
2022/02/07 02:57:35;;;;;;;9.43;2.45;;;6.30;74.30;;;;;;5103046;28;20172;-89
2022/02/07 03:00:01;;;;;;;6.13;1.90;;;6.20;74.40;;;;;;5102964;28;20179;-90
2022/02/07 03:02:26;;;;;;;9.60;2.30;;;6.20;74.50;;;;;;5106257;27;20182;-89
2022/02/07 03:04:52;;;;;;;9.33;2.10;;;6.10;74.90;;;;;;5114019;28;20240;-89
2022/02/07 03:07:18;;;;;;;6.27;2.10;;;6.20;75.10;;;;;;5102652;28;20265;-89
2022/02/07 03:09:48;;;;;;;14.90;2.00;;;6.20;75.00;;;;;;5109700;27;20189;-89
2022/02/07 03:12:17;;;;;;;9.85;2.75;;;6.20;74.80;;;;;;5102804;28;20257;-89
2022/02/07 03:14:45;;;;;;;13.63;2.78;;;6.30;74.70;;;;;;5119822;28;20279;-89
2022/02/07 03:17:11;;;;;;;7.95;1.90;;;6.20;74.30;;;;;;5102658;28;20191;-89
2022/02/07 03:19:37;;;;;;;15.30;2.40;;;6.20;74.50;;;;;;5102075;28;20254;-89
2022/02/07 03:22:03;;;;;;;8.00;2.10;;;6.20;74.50;;;;;;5093380;28;20215;-90
2022/02/07 03:24:29;;;;;;;6.32;2.22;;;6.20;74.30;;;;;;5106494;28;20277;-90
2022/02/07 03:26:55;;;;;;;8.20;1.93;;;6.20;74.30;;;;;;5099893;28;20187;-89
2022/02/07 03:29:20;;;;;;;3.63;1.60;;;6.20;74.10;;;;;;5112350;27;20174;-89
2022/02/07 03:31:46;;;;;;;15.07;2.53;;;6.10;73.90;;;;;;5122591;27;20209;-89
2022/02/07 03:34:12;;;;;;;14.43;1.70;;;6.10;73.80;;;;;;5104426;28;20215;-89
2022/02/07 03:36:38;;;;;;;3.87;1.83;;;6.10;73.60;;;;;;5103081;28;20421;-89
2022/02/07 03:39:05;;;;;;;8.32;1.92;;;6.10;73.50;;;;;;5105418;28;20429;-90
2022/02/07 03:41:32;;;;;;;3.72;1.75;;;6.10;73.00;;;;;;5109659;28;20234;-88
2022/02/07 03:43:58;;;;;;;3.05;1.70;;;6.10;73.20;;;;;;5106771;28;20256;-89
2022/02/07 03:46:23;;;;;;;17.33;3.23;;;6.10;72.90;;;;;;5100904;28;20191;-89
2022/02/07 03:48:58;;;;;;;5.53;1.60;;;6.00;72.70;;;;;;5120522;28;20785;-90
2022/02/07 03:51:24;;;;;;;9.55;2.78;;;6.00;72.90;;;;;;5120686;28;20202;-90
2022/02/07 03:53:50;;;;;;;6.70;2.00;;;6.00;73.10;;;;;;5102024;28;20821;-90
2022/02/07 03:56:16;;;;;;;6.73;2.30;;;6.10;73.20;;;;;;5103914;28;20171;-89
2022/02/07 03:58:42;;;;;;;9.40;2.20;;;6.10;73.00;;;;;;5103006;28;20503;-89
2022/02/07 04:01:08;;;;;;;13.70;1.70;;;6.20;72.90;;;;;;5119528;28;20686;-90
2022/02/07 04:03:35;;;;;;;3.33;1.80;;;6.00;72.70;;;;;;5101049;28;20421;-89
2022/02/07 04:06:04;;;;;;;4.18;1.17;;;6.00;73.10;;;;;;5102873;28;20193;-89
2022/02/07 04:08:37;;;;;;;14.98;1.85;;;6.10;73.20;;;;;;5107489;28;20178;-89
2022/02/07 04:13:34;;;;;;;11.13;3.05;;;5.90;73.10;;;;;;5121756;28;20221;-88
2022/02/07 04:16:02;;;;;;;6.15;2.17;;;5.80;73.00;;;;;;5105532;28;20261;-89
2022/02/07 04:18:46;;;;;;;8.95;1.85;;;5.80;73.20;;;;;;5096511;28;20172;-89
2022/02/07 04:21:12;;;;;;;5.10;1.83;;;5.70;73.40;;;;;;5107981;28;20659;-89
2022/02/07 04:23:39;;;;;;;7.17;1.33;;;5.70;73.70;;;;;;5086668;28;20218;-89
2022/02/07 04:26:04;;;;;;;5.22;2.03;;;5.70;73.50;;;;;;5099588;28;20976;-89
2022/02/07 04:28:30;;;;;;;9.73;2.00;;;5.70;73.80;;;;;;5102273;28;20215;-89
2022/02/07 04:30:56;;;;;;;12.90;2.00;;;5.70;73.80;;;;;;5102496;28;20171;-88
2022/02/07 04:33:21;;;;;;;12.27;2.47;;;5.80;73.70;;;;;;5100569;28;20651;-88
2022/02/07 04:35:47;;;;;;;4.87;2.20;;;5.60;73.80;;;;;;5092300;28;20421;-89
2022/02/07 04:38:13;;;;;;;9.10;1.83;;;5.60;74.00;;;;;;5101131;28;20171;-89
2022/02/07 04:40:39;;;;;;;9.13;2.03;;;5.70;74.20;;;;;;5119865;28;20189;-88
2022/02/07 04:43:07;;;;;;;6.73;2.10;;;5.70;74.20;;;;;;5103575;28;20463;-88
2022/02/07 04:45:47;;;;;;;12.20;2.20;;;5.60;74.10;;;;;;5107075;28;20194;-88
2022/02/07 05:01:33;;;;;;;9.90;1.90;;;5.70;74.40;;;;;;5130232;28;20217;-87
2022/02/07 05:04:06;;;;;;;8.93;1.67;;;5.60;74.20;;;;;;5104031;28;20691;-89
2022/02/07 05:14:48;;;;;;;15.68;2.88;;;5.60;74.80;;;;;;5118219;28;20178;-88
2022/02/07 05:17:16;;;;;;;4.25;1.55;;;5.60;74.60;;;;;;5100265;28;20183;-89
2022/02/07 05:19:42;;;;;;;14.32;2.45;;;5.60;74.80;;;;;;5099853;28;20242;-88
2022/02/07 05:22:07;;;;;;;14.48;1.80;;;5.50;74.80;;;;;;5098442;27;20260;-89
2022/02/07 05:24:33;;;;;;;9.73;1.90;;;5.50;75.00;;;;;;5126365;27;20226;-88
2022/02/07 05:26:59;;;;;;;7.97;1.70;;;5.40;75.10;;;;;;5101085;28;20417;-88
2022/02/07 05:29:25;;;;;;;5.27;1.70;;;5.50;75.10;;;;;;5101639;28;20179;-88
2022/02/07 05:31:52;;;;;;;12.60;2.03;;;5.50;75.10;;;;;;5104110;28;20245;-88
2022/02/07 05:34:17;;;;;;;11.35;1.90;;;5.60;75.00;;;;;;5107952;28;20505;-88
2022/02/07 05:36:45;;;;;;;5.77;1.63;;;5.60;75.00;;;;;;5092395;28;20202;-90
2022/02/07 05:39:17;;;;;;;8.73;1.90;;;5.70;75.20;;;;;;5120114;28;20167;-88
2022/02/07 05:41:44;;;;;;;10.30;2.88;;;5.70;75.00;;;;;;5099744;28;20194;-88
2022/02/07 05:44:12;;;;;;;18.80;3.08;;;5.70;74.80;;;;;;5099495;28;20203;-88
2022/02/07 05:46:38;;;;;;;7.82;2.15;;;5.80;74.80;;;;;;5104097;28;20179;-86
2022/02/07 05:49:04;;;;;;;19.00;2.50;;;5.80;74.70;;;;;;5105562;28;20217;-88
2022/02/07 05:51:30;;;;;;;5.10;1.50;;;5.70;74.70;;;;;;5098976;28;20420;-88
2022/02/07 05:53:56;;;;;;;8.33;1.70;;;5.80;74.70;;;;;;5098147;28;20738;-89
2022/02/07 05:56:21;;;;;;;7.40;2.33;;;5.90;74.70;;;;;;5098938;28;20194;-88
2022/02/07 05:58:47;;;;;;;10.00;2.30;;;5.90;74.50;;;;;;5104583;28;20281;-89
2022/02/07 06:01:13;;;;;;;9.73;4.50;;;5.80;74.40;;;;;;5099011;28;20182;-90
2022/02/07 06:03:39;;;;;;;10.38;2.25;;;6.00;74.60;;;;;;5098500;28;20218;-88
2022/02/07 06:06:05;;;;;;;11.40;2.63;;;6.10;74.60;;;;;;5087097;28;20266;-88
2022/02/07 06:08:32;;;;;;;11.55;2.75;;;6.10;74.30;;;;;;5102207;28;20170;-89
2022/02/07 06:11:01;;;;;;;5.90;1.85;;;6.10;74.10;;;;;;5121441;28;20262;-88
2022/02/07 06:13:27;;;;;;;6.82;2.33;;;6.10;74.00;;;;;;5089990;28;20821;-88
2022/02/07 06:15:53;;;;;;;8.25;2.17;;;6.00;74.10;;;;;;5083460;28;20195;-88
2022/02/07 06:18:22;;;;;;;8.07;2.50;;;5.90;74.20;;;;;;5102639;28;20167;-88
2022/02/07 06:20:49;;;;;;;4.10;1.60;;;5.90;74.30;;;;;;5126620;27;20550;-88
2022/02/07 06:23:15;;;;;;;10.88;2.75;;;6.00;74.40;;;;;;5113886;28;20232;-90
2022/02/07 06:25:41;;;;;;;8.13;1.90;;;6.00;74.20;;;;;;5101295;28;20171;-89
2022/02/07 06:28:06;;;;;;;7.28;2.10;;;6.00;74.20;;;;;;5103107;28;20413;-89
2022/02/07 06:30:32;;;;;;;6.30;1.60;;;6.10;74.20;;;;;;5109325;28;20221;-89
2022/02/07 06:33:06;;;;;;;12.40;2.10;;;6.10;73.90;;;;;;5102369;28;20203;-89
2022/02/07 06:35:32;;;;;;;14.45;2.90;;;6.10;74.00;;;;;;5120792;27;20424;-90
2022/02/07 06:37:58;;;;;;;7.53;1.90;;;6.10;73.90;;;;;;5101600;28;20186;-88
2022/02/07 06:40:24;;;;;;;11.60;2.60;;;6.00;73.80;;;;;;5106750;28;20425;-88
2022/02/07 06:42:49;;;;;;;4.67;1.57;;;6.00;73.80;;;;;;5116886;28;20203;-88
2022/02/07 06:45:15;;;;;;;7.83;1.90;;;5.90;73.90;;;;;;5106632;28;20806;-89
2022/02/07 06:47:42;;;;;;;6.50;1.77;;;6.00;74.00;;;;;;5101127;28;20183;-88
2022/02/07 06:50:08;;;;;;;8.02;1.80;;;5.90;73.90;;;;;;5101022;28;20424;-87
2022/02/07 06:52:34;;;;;;;18.15;2.15;;;6.00;74.30;;;;;;5100197;28;20310;-87
2022/02/07 06:54:59;;;;;;;9.17;2.13;;;6.10;74.30;;;;;;5087921;28;20209;-88
2022/02/07 06:57:26;;;;;;;16.30;2.43;;;6.10;74.10;;;;;;5096796;28;20255;-88
2022/02/07 06:59:52;;;;;;;12.15;1.60;;;6.20;74.10;;;;;;5104586;28;20215;-87
2022/02/07 07:02:21;;;;;;;5.10;1.40;;;6.30;74.00;;;;;;5108609;28;20193;-87
2022/02/07 07:04:49;;;;;;;16.45;2.45;;;6.20;73.60;;;;;;5107579;28;20180;-87
2022/02/07 07:07:16;;;;;;;8.02;1.85;;;6.10;73.50;;;;;;5123651;28;20266;-88
2022/02/07 07:09:44;;;;;;;3.70;1.60;;;6.10;73.40;;;;;;5100959;28;20669;-87
2022/02/07 07:12:10;;;;;;;20.25;2.35;;;6.10;73.40;;;;;;5099747;28;20198;-88
2022/02/07 07:14:47;;;;;;;8.52;1.95;;;6.20;73.50;;;;;;5100726;28;20209;-88
2022/02/07 07:17:13;;;;;;;8.70;1.90;;;6.20;73.40;;;;;;5100240;28;20191;-88
2022/02/07 07:19:39;;;;;;;7.73;1.87;;;6.30;73.50;;;;;;5099730;28;20191;-88
2022/02/07 07:22:05;;;;;;;4.73;2.00;;;6.40;73.60;;;;;;5116310;27;20518;-88
2022/02/07 07:24:33;;;;;;;13.40;1.90;;;6.40;73.50;;;;;;5104552;28;20525;-88
2022/02/07 07:27:00;;;;;;;12.40;1.83;;;6.40;73.30;;;;;;5083056;28;20191;-87
2022/02/07 07:29:30;;;;;;;6.18;2.00;;;6.30;73.30;;;;;;5078868;28;20545;-88
2022/02/07 07:32:03;;;;;;;8.30;2.20;;;6.30;73.10;;;;;;5116510;27;20186;-88
2022/02/07 07:34:30;;;;;;;10.90;2.33;;;6.30;73.30;;;;;;5118574;27;20199;-89
2022/02/07 07:36:57;;;;;;;3.30;1.42;;;6.20;73.30;;;;;;5118954;27;20182;-87
2022/02/07 07:39:23;;;;;;;7.68;2.53;;;6.30;73.30;;;;;;5119914;27;20171;-88
2022/02/07 07:41:49;;;;;;;13.57;2.22;;;6.30;73.20;;;;;;5139598;27;20198;-88
2022/02/07 07:44:18;;;;;;;10.30;2.30;;;6.40;73.10;;;;;;5140774;27;20201;-87
2022/02/07 07:46:44;;;;;;;15.90;2.67;;;6.30;73.00;;;;;;5120420;27;20182;-87
2022/02/07 07:49:15;;;;;;;9.25;2.33;;;6.30;73.10;;;;;;5120565;27;20183;-87
2022/02/07 07:51:47;;;;;;;5.90;1.98;;;6.40;73.30;;;;;;5120145;27;20173;-88
2022/02/07 07:54:25;;;;;;;6.03;1.75;;;6.30;73.10;;;;;;5118503;27;20214;-88
2022/02/07 08:02:24;;;;;;;4.45;1.73;;;6.20;72.90;;;;;;5119924;28;20190;-87
2022/02/07 08:04:51;;;;;;;10.27;2.72;;;6.30;73.30;;;;;;5116873;28;20164;-87
2022/02/07 08:07:24;;;;;;;4.50;2.80;;;6.40;73.30;;;;;;5118188;28;20190;-87
2022/02/07 08:12:28;;;;;;;13.13;2.30;;;6.50;72.90;;;;;;5118159;28;20585;-87
2022/02/07 08:14:55;;;;;;;9.50;2.20;;;6.60;72.80;;;;;;5098969;28;20171;-86
2022/02/07 08:17:23;;;;;;;9.00;2.58;;;6.60;72.30;;;;;;5099163;28;20210;-87
2022/02/07 08:19:49;;;;;;;4.47;2.00;;;6.70;72.20;;;;;;5099535;28;20202;-87
2022/02/07 08:22:15;;;;;;;12.50;2.00;;;6.80;71.90;;;;;;5100192;28;20184;-87
2022/02/07 08:24:41;;;;;;;5.00;1.90;;;6.90;71.90;;;;;;5104805;28;20175;-87
2022/02/07 08:27:07;;;;;;;10.83;2.23;;;6.80;71.70;;;;;;5108653;28;20414;-86
2022/02/07 08:29:33;;;;;;;7.97;1.85;;;6.80;71.90;;;;;;5081425;28;20222;-87
2022/02/07 08:31:58;;;;;;;7.73;2.13;;;6.90;72.20;;;;;;5117636;27;20171;-87
2022/02/07 08:34:24;;;;;;;9.53;2.63;;;6.90;72.10;;;;;;5121852;27;20212;-87
2022/02/07 08:36:52;;;;;;;9.53;2.27;;;7.00;72.10;;;;;;5123990;27;20736;-88
2022/02/07 08:39:18;;;;;;;11.13;2.88;;;6.90;71.90;;;;;;5119949;27;20174;-87
2022/02/07 08:41:52;;;;;;;14.90;2.53;;;6.80;71.60;;;;;;5118919;27;20170;-86
2022/02/07 08:44:18;;;;;;;9.77;2.05;;;6.90;72.00;;;;;;5117603;27;20194;-87
2022/02/07 08:46:44;;;;;;;7.73;2.60;;;7.00;71.90;;;;;;5119574;27;20182;-86
2022/02/07 08:49:09;;;;;;;6.50;2.47;;;7.10;71.80;;;;;;5138954;27;20239;-87
2022/02/07 08:51:36;;;;;;;16.83;2.63;;;7.10;71.50;;;;;;5138756;27;20174;-87
2022/02/07 08:54:05;;;;;;;9.45;2.40;;;7.00;71.20;;;;;;5119118;27;20265;-87
2022/02/07 08:56:41;;;;;;;10.45;2.75;;;7.10;71.60;;;;;;5118699;27;20654;-87
2022/02/07 08:59:07;;;;;;;10.80;2.85;;;7.10;71.70;;;;;;5116015;28;20198;-87
2022/02/07 09:02:05;;;;;;;6.90;1.90;;;7.20;71.30;;;;;;5099671;28;20640;-87
2022/02/07 09:04:46;;;;;;;6.10;2.00;;;7.30;71.30;;;;;;5098752;28;20429;-87
2022/02/07 09:07:22;;;;;;;8.73;2.20;;;7.10;71.90;;;;;;5101822;28;20212;-87
2022/02/07 09:09:48;;;;;;;6.20;2.35;;;7.00;71.10;;;;;;5123589;27;20188;-87
2022/02/07 09:12:14;;;;;;;4.60;1.80;;;7.00;71.30;;;;;;5123214;27;20715;-87
2022/02/07 09:14:51;;;;;;;13.77;2.10;;;7.00;71.60;;;;;;5122188;28;20168;-88
2022/02/07 09:17:16;;;;;;;11.07;2.85;;;7.00;71.50;;;;;;5129304;28;20245;-88
2022/02/07 09:19:42;;;;;;;5.83;2.37;;;6.90;71.40;;;;;;5107181;28;20194;-87
2022/02/07 09:22:08;;;;;;;12.23;1.97;;;6.80;71.50;;;;;;5117098;28;20540;-86
2022/02/07 09:24:33;;;;;;;7.17;1.80;;;6.90;71.50;;;;;;5097419;28;20206;-87
2022/02/07 09:26:59;;;;;;;6.33;2.27;;;7.00;71.70;;;;;;5097304;28;20206;-87
2022/02/07 09:29:25;;;;;;;2.67;1.70;;;6.90;71.80;;;;;;5097875;28;20412;-87
2022/02/07 09:31:51;;;;;;;5.57;1.95;;;7.00;72.00;;;;;;5097906;28;20500;-87
2022/02/07 09:34:17;;;;;;;7.13;1.80;;;7.10;71.50;;;;;;5114913;28;20207;-87
2022/02/07 09:36:43;;;;;;;4.87;1.93;;;7.20;71.50;;;;;;5097588;28;20428;-88
2022/02/07 09:39:08;;;;;;;6.00;1.57;;;7.20;71.20;;;;;;5097829;28;20406;-88
2022/02/07 09:41:35;;;;;;;6.37;2.13;;;7.30;70.90;;;;;;5097346;28;20685;-88
2022/02/07 09:44:03;;;;;;;5.55;2.33;;;7.30;71.00;;;;;;5095846;28;20983;-87
2022/02/07 09:46:43;;;;;;;8.10;1.90;;;7.40;70.70;;;;;;5097224;28;20198;-87
2022/02/07 09:49:11;;;;;;;7.40;2.15;;;7.30;70.40;;;;;;5098130;28;20175;-87
2022/02/07 09:51:37;;;;;;;13.27;2.42;;;7.30;70.50;;;;;;5099886;28;20175;-87
2022/02/07 09:54:04;;;;;;;7.82;1.70;;;7.40;70.80;;;;;;5108664;28;20278;-88
2022/02/07 09:56:29;;;;;;;2.97;2.00;;;7.30;70.20;;;;;;5107790;28;20175;-88
2022/02/07 09:58:55;;;;;;;11.70;2.73;;;7.30;69.90;;;;;;5106441;28;20175;-87
2022/02/07 10:01:31;;;;;;;6.50;1.73;;;7.20;70.10;;;;;;5097469;28;20199;-87
2022/02/07 10:04:04;;;;;;;6.80;2.20;;;7.30;70.00;;;;;;5115400;28;20244;-87
2022/02/07 10:06:40;;;;;;;7.93;1.98;;;7.30;69.60;;;;;;5098994;28;20171;-87
2022/02/07 10:39:52;;;;;;;9.77;2.63;;;7.60;67.80;;;;;;5115816;28;20496;-87
2022/02/07 10:45:04;;;;;;;6.40;1.98;;;7.70;67.50;;;;;;5115293;28;20171;-87
2022/02/07 10:47:39;;;;;;;9.45;1.63;;;7.80;67.30;;;;;;5097382;28;20168;-87
2022/02/07 10:50:14;;;;;;;8.32;1.83;;;7.80;66.70;;;;;;5096565;28;20232;-87
2022/02/07 10:52:55;;;;;;;7.20;1.75;;;7.80;66.40;;;;;;5115419;28;20206;-87
2022/02/07 10:55:29;;;;;;;10.40;2.05;;;8.00;66.50;;;;;;5105842;28;20261;-87
2022/02/07 10:57:58;;;;;;;7.10;1.80;;;8.00;66.40;;;;;;5108414;28;20261;-87
2022/02/07 11:00:38;;;;;;;6.18;1.80;;;8.00;66.20;;;;;;5119290;28;20179;-88
2022/02/07 11:05:48;;;;;;;3.78;1.23;;;8.00;65.40;;;;;;5119203;28;20225;-87
2022/02/07 11:14:23;;;;;;;7.55;1.90;;;7.70;65.70;;;;;;5119183;28;20230;-87
2022/02/07 11:19:08;;;;;;;8.15;1.75;;;7.70;65.70;;;;;;5099231;28;20152;-88
2022/02/07 11:21:38;;;;;;;5.75;1.60;;;7.70;65.40;;;;;;5099165;28;20600;-88
2022/02/07 11:27:52;;;;;;;3.58;1.77;;;7.90;66.10;;;;;;5118913;28;20186;-87
2022/02/07 11:30:43;;;;;;;8.45;2.10;;;8.00;65.20;;;;;;5091302;28;20183;-87
2022/02/07 11:33:51;;;;;;;9.00;2.53;;;8.00;65.50;;;;;;5107566;28;20219;-88
2022/02/07 11:36:47;;;;;;;13.57;2.05;;;8.30;65.80;;;;;;5101867;28;20159;-88
2022/02/07 11:39:18;;;;;;;20.48;1.60;;;8.30;64.60;;;;;;5085233;28;20690;-87
2022/02/07 11:41:56;;;;;;;5.00;1.70;;;8.40;64.50;;;;;;5099468;28;20179;-87
2022/02/07 11:44:51;;;;;;;8.43;1.92;;;8.50;64.00;;;;;;5098618;28;20199;-87
2022/02/07 11:47:28;;;;;;;16.92;2.20;;;8.60;63.20;;;;;;5082242;28;20187;-88
2022/02/07 11:49:57;;;;;;;4.80;1.35;;;8.70;62.90;;;;;;5100503;28;20173;-87
2022/02/07 11:52:42;;;;;;;3.60;1.33;;;8.70;62.50;;;;;;5116606;27;20182;-87
2022/02/07 11:55:16;;;;;;;7.10;2.15;;;8.50;61.70;;;;;;5120476;27;20171;-87
2022/02/07 11:57:55;;;;;;;4.35;1.80;;;8.50;61.60;;;;;;5120247;27;20169;-86
2022/02/07 12:00:24;;;;;;;6.65;1.30;;;8.60;61.40;;;;;;5106655;28;20577;-87
2022/02/07 12:02:50;;;;;;;5.40;1.75;;;8.80;60.80;;;;;;5100296;28;20551;-86
2022/02/07 12:05:20;;;;;;;11.07;2.13;;;8.70;59.80;;;;;;5101208;28;20195;-86
2022/02/07 12:07:58;;;;;;;7.93;1.90;;;8.80;59.30;;;;;;5099554;28;20167;-86
2022/02/07 12:13:04;;;;;;;4.03;1.40;;;8.80;58.70;;;;;;5119117;28;20216;-87
2022/02/07 12:15:38;;;;;;;2.72;1.38;;;8.80;58.30;;;;;;5100501;28;20174;-86
2022/02/07 12:18:12;;;;;;;5.20;1.30;;;8.80;58.70;;;;;;5101126;28;20180;-87
2022/02/07 12:20:39;;;;;;;6.55;1.52;;;8.80;58.00;;;;;;5101333;28;20170;-86
2022/02/07 12:23:04;;;;;;;8.10;1.83;;;8.90;57.90;;;;;;5119643;28;20214;-86
2022/02/07 12:25:45;;;;;;;6.33;1.87;;;8.90;57.40;;;;;;5118893;28;20175;-86
2022/02/07 12:28:19;;;;;;;1.63;1.35;;;8.90;57.50;;;;;;5103670;28;20185;-86
2022/02/07 12:33:17;;;;;;;6.88;1.50;;;8.90;56.60;;;;;;5123225;28;20198;-86
2022/02/07 12:35:45;;;;;;;3.80;1.52;;;8.90;55.90;;;;;;5101694;28;20268;-86
2022/02/07 12:38:12;;;;;;;3.97;1.55;;;8.90;56.00;;;;;;5101058;28;20178;-86
2022/02/07 12:40:42;;;;;;;9.40;1.50;;;8.80;55.60;;;;;;5125142;28;20173;-87
2022/02/07 12:43:10;;;;;;;3.10;1.23;;;8.90;56.20;;;;;;5100872;28;20191;-86
2022/02/07 12:45:38;;;;;;;3.30;1.10;;;8.80;55.50;;;;;;5099572;28;20175;-86
2022/02/07 12:48:10;;;;;;;5.78;1.55;;;8.80;55.00;;;;;;5121456;28;20195;-86
2022/02/07 12:50:35;;;;;;;4.05;1.90;;;8.80;55.40;;;;;;5100284;28;20179;-86
2022/02/07 12:53:01;;;;;;;2.03;1.00;;;8.90;55.30;;;;;;5112147;27;20217;-86
2022/02/07 12:55:27;;;;;;;9.27;1.40;;;8.90;55.00;;;;;;5118142;27;20412;-87
2022/02/07 12:57:53;;;;;;;5.60;1.20;;;9.00;54.40;;;;;;5120816;27;20495;-87
2022/02/07 13:00:21;;;;;;;5.13;1.23;;;8.90;53.80;;;;;;5107729;28;20187;-86
2022/02/07 13:02:48;;;;;;;2.80;1.10;;;9.00;54.30;;;;;;5099999;28;20221;-87
2022/02/07 13:05:20;;;;;;;6.18;1.77;;;9.10;53.80;;;;;;5119044;28;20179;-86
2022/02/07 13:07:49;;;;;;;3.35;1.10;;;9.00;52.70;;;;;;5101700;28;20262;-87
2022/02/07 13:10:20;;;;;;;6.30;1.42;;;9.10;52.20;;;;;;5119717;28;20171;-86
2022/02/07 13:15:34;;;;;;;5.22;1.23;;;9.10;52.40;;;;;;5117841;28;20159;-87
2022/02/07 13:18:06;;;;;;;2.75;1.35;;;9.20;52.10;;;;;;5118288;28;20155;-86
2022/02/07 13:20:35;;;;;;;3.63;1.33;;;9.20;52.00;;;;;;5117442;28;20243;-86
2022/02/07 13:23:05;;;;;;;1.60;1.08;;;9.30;52.40;;;;;;5117424;28;20187;-87
2022/02/07 13:25:42;;;;;;;5.80;1.10;;;9.20;52.30;;;;;;5094534;28;20255;-85
2022/02/07 13:28:24;;;;;;;5.78;1.50;;;9.10;52.60;;;;;;5080252;28;20171;-86
2022/02/07 13:30:53;;;;;;;1.30;1.10;;;9.10;53.80;;;;;;5098482;28;20247;-85
2022/02/07 13:33:20;;;;;;;1.25;1.15;;;9.30;53.60;;;;;;5080770;28;20302;-85
2022/02/07 13:35:48;;;;;;;2.95;1.00;;;9.20;52.20;;;;;;5100924;28;20183;-86
2022/02/07 13:38:17;;;;;;;2.13;1.25;;;9.10;51.80;;;;;;5082105;28;20176;-85
2022/02/07 13:40:45;;;;;;;3.85;1.15;;;9.20;51.40;;;;;;5080728;28;20180;-85
2022/02/07 13:43:19;;;;;;;2.97;1.20;;;9.10;51.50;;;;;;5079646;28;20294;-86
2022/02/07 13:45:49;;;;;;;7.90;1.60;;;9.00;52.30;;;;;;5081685;28;20202;-85
2022/02/07 13:48:19;;;;;;;3.17;1.85;;;9.20;52.70;;;;;;5123741;28;20183;-87
2022/02/07 13:50:48;;;;;;;3.80;1.45;;;9.30;52.90;;;;;;5113609;28;20179;-86
2022/02/07 13:53:17;;;;;;;5.47;1.48;;;9.30;52.70;;;;;;5118086;28;20208;-85
2022/02/07 13:55:46;;;;;;;5.45;1.20;;;9.30;51.60;;;;;;5105660;28;20205;-86
2022/02/07 13:58:15;;;;;;;6.70;1.35;;;9.30;50.50;;;;;;5119864;28;20198;-86
2022/02/07 14:00:54;;;;;;;2.35;1.17;;;9.30;49.90;;;;;;5098091;28;20182;-88
2022/02/07 14:03:27;;;;;;;4.60;1.75;;;9.40;49.90;;;;;;5097614;28;20203;-86
2022/02/07 14:05:56;;;;;;;4.63;1.40;;;9.40;49.90;;;;;;5098398;28;20231;-87
2022/02/07 14:08:48;;;;;;;7.13;2.28;;;9.30;50.40;;;;;;5098441;28;20352;-87
2022/02/07 14:11:19;;;;;;;5.25;1.50;;;9.40;51.10;;;;;;5098793;28;20202;-86
2022/02/07 14:13:45;;;;;;;3.00;1.50;;;9.50;51.40;;;;;;5097306;28;20211;-87
2022/02/07 14:16:14;;;;;;;5.20;1.27;;;9.50;51.10;;;;;;5098115;28;20457;-87
2022/02/07 14:18:45;;;;;;;5.80;1.20;;;9.50;49.70;;;;;;5098008;28;20571;-87
2022/02/07 14:21:12;;;;;;;3.95;1.27;;;9.40;49.20;;;;;;5103601;28;20182;-86
2022/02/07 14:23:43;;;;;;;3.10;1.10;;;9.40;49.40;;;;;;5118301;28;20194;-87
2022/02/07 14:26:11;;;;;;;3.28;1.20;;;9.40;49.40;;;;;;5112240;28;20179;-87
2022/02/07 14:28:37;;;;;;;2.20;1.30;;;9.60;49.60;;;;;;5122269;28;20175;-86
2022/02/07 14:31:03;;;;;;;6.10;1.50;;;9.50;49.40;;;;;;5124616;27;20183;-86
2022/02/07 14:33:29;;;;;;;6.22;1.58;;;9.60;48.50;;;;;;5127639;27;20198;-87
2022/02/07 14:35:56;;;;;;;3.00;1.53;;;9.50;48.50;;;;;;5141852;27;20209;-86
2022/02/07 14:38:21;;;;;;;3.63;2.00;;;9.40;49.10;;;;;;5122023;27;20159;-86
2022/02/07 14:40:47;;;;;;;9.70;1.80;;;9.40;49.60;;;;;;5122247;27;20193;-86
2022/02/07 14:43:20;;;;;;;6.63;2.03;;;9.40;49.90;;;;;;5121311;27;20471;-86
2022/02/07 14:46:06;;;;;;;4.45;1.40;;;9.40;51.00;;;;;;5121908;27;20181;-86
2022/02/07 14:48:34;;;;;;;4.50;1.65;;;9.40;50.20;;;;;;5123416;27;20174;-86
2022/02/07 14:51:02;;;;;;;10.80;1.77;;;9.40;50.40;;;;;;5124095;27;20185;-86
2022/02/07 14:53:28;;;;;;;6.57;1.80;;;9.40;50.20;;;;;;5124489;27;20271;-86
2022/02/07 14:55:54;;;;;;;3.50;1.60;;;9.40;50.30;;;;;;5122147;27;20638;-86
2022/02/07 14:58:21;;;;;;;4.72;1.50;;;9.40;50.30;;;;;;5141275;27;20436;-86
2022/02/07 15:00:47;;;;;;;5.97;1.55;;;9.40;50.40;;;;;;5117027;27;20543;-86
2022/02/07 15:03:15;;;;;;;6.10;2.10;;;9.30;50.30;;;;;;5138784;27;20719;-87
2022/02/07 15:05:41;;;;;;;5.13;1.65;;;9.40;51.30;;;;;;5120355;27;20201;-86
2022/02/07 15:08:07;;;;;;;5.10;1.77;;;9.40;50.60;;;;;;5120284;27;20659;-86
2022/02/07 15:10:36;;;;;;;2.88;1.30;;;9.40;50.90;;;;;;5121700;27;20420;-87
2022/02/07 15:13:04;;;;;;;6.38;4.15;;;9.30;51.40;;;;;;5121090;27;20646;-87
2022/02/07 15:15:30;;;;;;;3.80;1.52;;;9.40;51.80;;;;;;5139466;27;20191;-86
2022/02/07 15:17:58;;;;;;;6.57;1.50;;;9.30;52.10;;;;;;5121324;27;20247;-87
2022/02/07 15:20:24;;;;;;;4.68;1.42;;;9.30;52.60;;;;;;5121755;27;20416;-86
2022/02/07 15:22:50;;;;;;;3.75;1.55;;;9.30;53.00;;;;;;5120316;27;20285;-87
2022/02/07 15:25:19;;;;;;;9.90;1.60;;;9.20;52.90;;;;;;5120308;27;20194;-86
2022/02/07 15:27:49;;;;;;;8.75;1.63;;;9.10;53.60;;;;;;5121086;27;20182;-86
2022/02/07 15:30:18;;;;;;;2.80;1.95;;;9.10;54.20;;;;;;5101975;28;20182;-87
2022/02/07 15:32:48;;;;;;;5.80;1.55;;;9.00;53.70;;;;;;5102949;28;20211;-87
2022/02/07 15:35:14;;;;;;;9.57;1.73;;;9.00;53.20;;;;;;5101303;28;20213;-86
2022/02/07 15:37:41;;;;;;;6.03;1.73;;;9.10;53.60;;;;;;5101424;28;20179;-87
2022/02/07 15:40:09;;;;;;;5.00;2.05;;;9.10;54.20;;;;;;5101843;28;20259;-88
2022/02/07 15:42:36;;;;;;;4.32;1.70;;;9.20;54.90;;;;;;5101024;28;20209;-86
2022/02/07 15:45:02;;;;;;;14.23;3.20;;;9.30;55.30;;;;;;5120972;28;20170;-86
2022/02/07 15:47:33;;;;;;;5.45;1.80;;;9.10;55.00;;;;;;5121453;28;20206;-86
2022/02/07 15:50:08;;;;;;;8.68;1.92;;;9.00;55.00;;;;;;5103466;28;20167;-86